Time;durP1;ratioP1;P1;durP2;ratioP2;P2;SDS_P1;SDS_P2;PMS_P1;PMS_P2;Temp;Humidity;BMP_temperature;BMP_pressure;BME280_temperature;BME280_humidity;BME280_pressure;Samples;Min_cycle;Max_cycle;Signal;HPM_P1;HPM_P2
2024/04/07 00:01:36;;;;;;;8.68;4.65;;;15.40;91.70;;;;;;5014666;28;20038;-72
2024/04/07 00:04:06;;;;;;;12.15;8.02;;;15.40;91.90;;;;;;4994790;28;20504;-72
2024/04/07 00:06:33;;;;;;;30.25;18.10;;;15.40;91.80;;;;;;4978696;28;20051;-72
2024/04/07 00:08:59;;;;;;;27.85;16.17;;;15.40;91.90;;;;;;4986713;28;20384;-72
2024/04/07 00:11:26;;;;;;;20.77;10.35;;;15.40;92.10;;;;;;5014508;28;20062;-72
2024/04/07 00:13:52;;;;;;;12.20;5.07;;;15.40;92.30;;;;;;4978973;28;20055;-73
2024/04/07 00:16:19;;;;;;;9.77;6.65;;;15.30;92.40;;;;;;4995112;28;20396;-72
2024/04/07 00:18:45;;;;;;;21.10;13.65;;;15.40;92.40;;;;;;4984159;28;20042;-72
2024/04/07 00:21:12;;;;;;;5.72;3.10;;;15.40;92.40;;;;;;5014812;28;20042;-73
2024/04/07 00:23:39;;;;;;;5.40;3.50;;;15.40;92.60;;;;;;4998180;28;20030;-72
2024/04/07 00:26:05;;;;;;;12.20;4.28;;;15.40;92.40;;;;;;5014543;28;20041;-72
2024/04/07 00:28:32;;;;;;;13.77;7.28;;;15.30;92.60;;;;;;4997894;28;20080;-72
2024/04/07 00:30:58;;;;;;;4.43;3.65;;;15.30;92.70;;;;;;5014552;28;20088;-72
2024/04/07 00:33:24;;;;;;;3.47;3.17;;;15.30;92.80;;;;;;4981818;28;20044;-72
2024/04/07 00:35:58;;;;;;;6.07;3.67;;;15.40;92.70;;;;;;4998401;28;20038;-72
2024/04/07 00:38:28;;;;;;;5.57;3.33;;;15.40;92.60;;;;;;4981807;28;20554;-72
2024/04/07 00:40:56;;;;;;;7.57;3.22;;;15.50;92.60;;;;;;5014450;28;20088;-72
2024/04/07 00:43:27;;;;;;;10.20;3.97;;;15.60;92.40;;;;;;4981367;28;20053;-72
2024/04/07 00:45:57;;;;;;;18.55;8.82;;;15.70;92.30;;;;;;4997960;28;20077;-72
2024/04/07 00:48:24;;;;;;;3.70;2.58;;;15.70;92.30;;;;;;4981524;28;20046;-73
2024/04/07 00:50:53;;;;;;;6.38;2.80;;;15.80;92.30;;;;;;5014148;28;20038;-72
2024/04/07 00:53:19;;;;;;;3.50;2.88;;;15.80;92.40;;;;;;4997043;28;20042;-72
2024/04/07 00:55:46;;;;;;;15.57;5.68;;;15.70;92.50;;;;;;4997482;28;20100;-72
2024/04/07 00:58:13;;;;;;;8.07;4.53;;;15.60;92.50;;;;;;4997614;28;20411;-72
2024/04/07 01:00:44;;;;;;;6.60;3.35;;;15.70;92.70;;;;;;4981372;28;20046;-73
2024/04/07 01:03:14;;;;;;;7.50;3.40;;;15.70;92.30;;;;;;5013842;28;20038;-72
2024/04/07 01:05:45;;;;;;;10.77;4.10;;;15.80;92.30;;;;;;5013676;28;20488;-72
2024/04/07 01:08:12;;;;;;;9.32;5.30;;;15.90;92.20;;;;;;4997467;28;20372;-72
2024/04/07 01:10:39;;;;;;;7.45;4.60;;;15.90;92.10;;;;;;4981346;28;20060;-73
2024/04/07 01:13:06;;;;;;;7.18;3.78;;;15.90;92.10;;;;;;5013838;28;20042;-73
2024/04/07 01:15:34;;;;;;;26.08;14.27;;;16.00;92.10;;;;;;4997756;28;20042;-72
2024/04/07 01:18:01;;;;;;;5.32;3.60;;;16.00;92.20;;;;;;4981483;28;20049;-72
2024/04/07 01:20:28;;;;;;;4.28;3.83;;;16.00;92.10;;;;;;4997199;28;20037;-72
2024/04/07 01:22:55;;;;;;;5.32;3.55;;;16.00;92.20;;;;;;4997559;28;20034;-73
2024/04/07 01:25:22;;;;;;;5.25;2.88;;;16.00;92.30;;;;;;4997504;28;20038;-73
2024/04/07 01:27:54;;;;;;;5.25;2.30;;;16.00;92.30;;;;;;4996991;28;20492;-72
2024/04/07 01:30:21;;;;;;;5.78;3.75;;;16.00;92.30;;;;;;5013682;28;20041;-73
2024/04/07 01:32:48;;;;;;;9.25;3.05;;;16.00;92.40;;;;;;4996775;28;20045;-72
2024/04/07 01:35:14;;;;;;;3.45;3.15;;;16.10;92.40;;;;;;4997016;28;20514;-73
2024/04/07 01:37:40;;;;;;;2.80;2.35;;;16.10;92.30;;;;;;4997023;28;20392;-72
2024/04/07 01:40:09;;;;;;;4.03;2.58;;;16.20;92.20;;;;;;4980862;28;20490;-73
2024/04/07 01:42:38;;;;;;;5.32;2.60;;;16.30;92.10;;;;;;4996736;28;20049;-73
2024/04/07 01:45:06;;;;;;;6.10;3.33;;;16.40;92.00;;;;;;5013075;28;20099;-73
2024/04/07 01:47:33;;;;;;;3.60;1.70;;;16.40;91.90;;;;;;4996819;28;20037;-72
2024/04/07 01:49:59;;;;;;;5.50;2.53;;;16.50;91.80;;;;;;4996932;28;20046;-73
2024/04/07 01:52:26;;;;;;;3.47;1.80;;;16.50;91.50;;;;;;4993283;28;20723;-72
2024/04/07 01:54:52;;;;;;;5.30;2.20;;;16.60;91.20;;;;;;4977677;28;20105;-72
2024/04/07 01:57:18;;;;;;;3.78;1.80;;;16.60;91.20;;;;;;4976428;28;20050;-72
2024/04/07 01:59:44;;;;;;;7.20;1.60;;;16.70;91.20;;;;;;4960615;28;20407;-72
2024/04/07 02:02:11;;;;;;;4.28;1.70;;;16.80;91.10;;;;;;4993295;28;20051;-72
2024/04/07 02:04:37;;;;;;;1.02;0.77;;;16.90;91.00;;;;;;4960856;28;20401;-73
2024/04/07 02:07:03;;;;;;;3.72;1.55;;;16.90;90.80;;;;;;4993317;28;20042;-72
2024/04/07 02:09:29;;;;;;;7.65;1.65;;;17.00;90.90;;;;;;4993221;28;20062;-72
2024/04/07 02:11:57;;;;;;;3.42;1.92;;;17.10;90.80;;;;;;4992881;28;20058;-72
2024/04/07 02:14:23;;;;;;;5.35;1.08;;;17.10;90.80;;;;;;4993022;28;20050;-73
2024/04/07 02:16:49;;;;;;;6.88;1.40;;;17.20;90.70;;;;;;5009127;28;20046;-72
2024/04/07 02:19:15;;;;;;;2.50;1.00;;;17.20;90.70;;;;;;4976812;28;20093;-72
2024/04/07 02:21:41;;;;;;;3.95;1.80;;;17.30;90.70;;;;;;4976682;28;20058;-73
2024/04/07 02:24:07;;;;;;;3.15;1.55;;;17.30;90.60;;;;;;4992855;28;20050;-72
2024/04/07 02:26:33;;;;;;;4.63;1.35;;;17.30;90.60;;;;;;4976776;28;20042;-72
2024/04/07 02:28:59;;;;;;;1.85;1.50;;;17.30;90.80;;;;;;4960400;28;20092;-72
2024/04/07 02:31:26;;;;;;;4.05;1.63;;;17.30;90.70;;;;;;4992705;28;20050;-73
2024/04/07 02:33:52;;;;;;;3.88;1.40;;;17.20;90.80;;;;;;4976446;28;20492;-72
2024/04/07 02:36:18;;;;;;;1.88;1.08;;;17.20;91.00;;;;;;4976728;28;20392;-72
2024/04/07 02:38:44;;;;;;;6.18;2.08;;;17.10;91.20;;;;;;4992439;28;20038;-72
2024/04/07 02:41:11;;;;;;;3.60;1.10;;;17.00;91.30;;;;;;4976543;28;20045;-72
2024/04/07 02:43:37;;;;;;;3.03;1.55;;;16.90;91.50;;;;;;4976177;28;20428;-72
2024/04/07 02:48:48;;;;;;;3.03;1.45;;;16.80;91.90;;;;;;4992439;28;20038;-72
2024/04/07 02:51:14;;;;;;;3.55;1.17;;;16.70;92.20;;;;;;4976161;28;20050;-73
2024/04/07 02:53:40;;;;;;;4.45;1.40;;;16.60;92.40;;;;;;4992237;28;20101;-73
2024/04/07 02:56:07;;;;;;;5.38;1.10;;;16.50;92.60;;;;;;4976395;28;20046;-72
2024/04/07 02:58:33;;;;;;;5.57;1.92;;;16.50;92.80;;;;;;4959957;28;20051;-72
2024/04/07 03:01:06;;;;;;;6.57;1.88;;;16.40;92.90;;;;;;4960013;28;20384;-72
2024/04/07 03:03:33;;;;;;;1.98;1.08;;;16.30;93.10;;;;;;4992467;28;20048;-73
2024/04/07 03:06:09;;;;;;;6.05;1.63;;;16.30;93.30;;;;;;4974964;28;20407;-72
2024/04/07 03:08:36;;;;;;;8.88;1.33;;;16.20;93.50;;;;;;4992077;28;20542;-72
2024/04/07 03:11:03;;;;;;;4.10;1.13;;;16.10;93.40;;;;;;4975723;28;20047;-72
2024/04/07 03:13:29;;;;;;;3.63;1.23;;;16.10;93.90;;;;;;5008777;28;20061;-73
2024/04/07 03:15:55;;;;;;;3.58;1.00;;;15.90;94.40;;;;;;4975495;28;20034;-73
2024/04/07 03:18:21;;;;;;;3.72;1.60;;;15.70;95.00;;;;;;4992151;28;20089;-72
2024/04/07 03:20:47;;;;;;;3.05;0.95;;;15.50;95.40;;;;;;4991697;28;20507;-72
2024/04/07 03:23:14;;;;;;;1.38;1.27;;;15.40;95.60;;;;;;4992032;28;20057;-73
2024/04/07 03:25:40;;;;;;;2.28;1.50;;;15.30;95.50;;;;;;4959810;28;20054;-72
2024/04/07 03:28:07;;;;;;;3.92;1.55;;;15.30;95.30;;;;;;4991791;28;20431;-72
2024/04/07 03:30:35;;;;;;;1.08;0.98;;;15.30;95.20;;;;;;4992025;28;20096;-72
2024/04/07 03:33:04;;;;;;;4.90;0.90;;;15.40;95.30;;;;;;4959482;28;20142;-72
2024/04/07 03:35:31;;;;;;;2.63;0.68;;;15.40;95.10;;;;;;4959625;28;20050;-72
2024/04/07 03:37:57;;;;;;;2.50;1.08;;;15.40;95.00;;;;;;4959429;28;20043;-72
2024/04/07 03:40:23;;;;;;;2.00;1.10;;;15.40;94.70;;;;;;4975566;28;20507;-72
2024/04/07 03:42:49;;;;;;;0.80;0.63;;;15.40;94.30;;;;;;4975584;28;20042;-72
2024/04/07 03:45:16;;;;;;;1.30;0.73;;;15.50;94.10;;;;;;4991849;28;20043;-72
2024/04/07 03:47:42;;;;;;;3.08;1.55;;;15.50;94.10;;;;;;5008021;28;20459;-72
2024/04/07 03:50:09;;;;;;;2.63;1.08;;;15.50;94.00;;;;;;4975469;28;20522;-72
2024/04/07 03:52:35;;;;;;;2.90;1.08;;;15.50;93.90;;;;;;4991546;28;20101;-72
2024/04/07 03:55:04;;;;;;;1.17;0.90;;;15.50;93.90;;;;;;4991523;28;20046;-72
2024/04/07 03:57:31;;;;;;;4.78;0.65;;;15.60;94.00;;;;;;4991761;28;20046;-72
2024/04/07 03:59:57;;;;;;;0.90;0.63;;;15.60;94.30;;;;;;4991368;28;20463;-73
2024/04/07 04:02:31;;;;;;;0.82;0.40;;;15.50;94.60;;;;;;4991679;28;20046;-73
2024/04/07 04:05:02;;;;;;;3.13;1.15;;;15.40;95.10;;;;;;4975372;28;20034;-73
2024/04/07 04:07:29;;;;;;;1.00;0.82;;;15.20;95.70;;;;;;4975351;28;20515;-73
2024/04/07 04:09:56;;;;;;;3.10;1.00;;;15.10;96.10;;;;;;5007601;28;20069;-73
2024/04/07 04:12:23;;;;;;;1.60;1.50;;;15.00;96.70;;;;;;4991585;28;20416;-73
2024/04/07 04:14:56;;;;;;;2.88;0.80;;;14.80;97.40;;;;;;4959183;28;20389;-72
2024/04/07 04:17:22;;;;;;;2.97;1.05;;;14.70;97.90;;;;;;4991591;28;20043;-74
2024/04/07 04:19:50;;;;;;;4.40;1.40;;;14.60;98.80;;;;;;4959072;28;20042;-72
2024/04/07 04:22:17;;;;;;;2.38;1.10;;;14.40;99.40;;;;;;4991593;28;20038;-73
2024/04/07 04:24:43;;;;;;;2.00;1.23;;;14.30;99.90;;;;;;4975310;28;20042;-73
2024/04/07 04:27:09;;;;;;;2.40;1.10;;;14.20;99.90;;;;;;4975582;28;20050;-73
2024/04/07 04:29:36;;;;;;;3.30;1.33;;;14.00;99.90;;;;;;4995073;28;20065;-73
2024/04/07 04:32:04;;;;;;;5.60;2.15;;;13.90;99.90;;;;;;4994805;28;20042;-72
2024/04/07 04:34:34;;;;;;;3.17;1.10;;;13.90;99.90;;;;;;4995013;28;20038;-72
2024/04/07 04:37:00;;;;;;;1.45;0.80;;;13.80;99.90;;;;;;4995032;28;20101;-72
2024/04/07 04:39:27;;;;;;;1.80;1.05;;;13.80;99.90;;;;;;4994819;28;20062;-72
2024/04/07 04:41:53;;;;;;;3.03;1.42;;;13.70;99.90;;;;;;4994634;28;20050;-72
2024/04/07 04:44:19;;;;;;;3.55;1.13;;;13.70;99.90;;;;;;4978615;28;20097;-72
2024/04/07 04:46:47;;;;;;;1.52;1.00;;;13.70;99.90;;;;;;4994511;28;20054;-72
2024/04/07 04:49:14;;;;;;;2.25;1.13;;;13.70;99.90;;;;;;5010691;28;20051;-72
2024/04/07 04:51:40;;;;;;;2.33;0.70;;;13.70;99.90;;;;;;4962388;28;20042;-72
2024/04/07 04:54:06;;;;;;;2.53;0.90;;;13.70;99.90;;;;;;4978323;28;20046;-73
2024/04/07 04:56:33;;;;;;;2.08;0.82;;;13.70;99.90;;;;;;4978395;28;20427;-72
2024/04/07 04:59:00;;;;;;;4.28;2.63;;;13.70;99.90;;;;;;4994186;28;20054;-72
2024/04/07 05:01:27;;;;;;;3.22;1.52;;;13.70;99.90;;;;;;4994603;28;20038;-72
2024/04/07 05:03:53;;;;;;;1.70;0.98;;;13.70;99.90;;;;;;4994175;28;20042;-72
2024/04/07 05:06:20;;;;;;;1.30;1.02;;;13.70;99.90;;;;;;4993493;28;20392;-73
2024/04/07 05:08:47;;;;;;;4.63;1.05;;;13.70;99.90;;;;;;4994502;28;20050;-72
2024/04/07 05:11:14;;;;;;;1.65;1.02;;;13.70;99.90;;;;;;4977964;28;20046;-72
2024/04/07 05:13:41;;;;;;;4.13;1.17;;;13.70;99.90;;;;;;4994301;28;20042;-72
2024/04/07 05:16:07;;;;;;;2.50;1.20;;;13.80;99.90;;;;;;4993920;28;20504;-72
2024/04/07 05:18:34;;;;;;;2.50;1.48;;;13.80;99.90;;;;;;4994152;28;20047;-72
2024/04/07 05:21:07;;;;;;;5.25;1.83;;;13.80;99.90;;;;;;4961758;28;20081;-73
2024/04/07 05:23:35;;;;;;;4.10;2.15;;;13.80;99.90;;;;;;4962131;28;20046;-73
2024/04/07 05:26:11;;;;;;;4.25;1.00;;;13.80;99.90;;;;;;4961473;28;20058;-73
2024/04/07 05:28:37;;;;;;;1.17;0.82;;;13.80;99.90;;;;;;4961961;28;20042;-72
2024/04/07 05:31:04;;;;;;;2.80;1.17;;;13.80;99.90;;;;;;4961213;28;20047;-73
2024/04/07 05:33:33;;;;;;;1.95;1.63;;;13.70;99.90;;;;;;4977515;28;20034;-72
2024/04/07 05:35:59;;;;;;;1.67;1.42;;;13.80;99.90;;;;;;4977920;28;20487;-72
2024/04/07 05:38:25;;;;;;;7.47;1.38;;;13.80;99.90;;;;;;4961473;28;20042;-72
2024/04/07 05:40:54;;;;;;;2.95;0.85;;;13.80;99.90;;;;;;4977452;28;20049;-72
2024/04/07 05:43:20;;;;;;;2.42;1.25;;;13.80;99.90;;;;;;4976903;28;20050;-72
2024/04/07 05:45:46;;;;;;;1.13;1.00;;;13.90;99.90;;;;;;4977389;28;20133;-72
2024/04/07 05:48:12;;;;;;;3.10;1.05;;;13.90;99.90;;;;;;4977230;28;20431;-72
2024/04/07 05:50:38;;;;;;;3.75;1.42;;;14.00;99.90;;;;;;4977376;28;20535;-73
2024/04/07 05:53:04;;;;;;;1.48;1.13;;;14.00;99.90;;;;;;4960956;28;20054;-73
2024/04/07 05:55:33;;;;;;;1.38;0.80;;;14.10;99.90;;;;;;4961101;28;20137;-72
2024/04/07 05:58:00;;;;;;;1.23;0.75;;;14.10;99.90;;;;;;4993352;28;20403;-72
2024/04/07 06:00:25;;;;;;;1.65;0.60;;;14.10;99.90;;;;;;4976748;28;20125;-72
2024/04/07 06:02:51;;;;;;;0.70;0.55;;;14.20;99.90;;;;;;5003655;28;20042;-72
2024/04/07 06:05:17;;;;;;;0.85;0.68;;;14.20;99.90;;;;;;5001841;28;20072;-72
2024/04/07 06:07:44;;;;;;;3.95;0.95;;;14.30;99.90;;;;;;5012656;28;20502;-72
2024/04/07 06:10:10;;;;;;;0.75;0.52;;;14.30;99.90;;;;;;5012215;28;20495;-72
2024/04/07 06:12:36;;;;;;;1.20;0.80;;;14.40;99.90;;;;;;4996323;28;20104;-72
2024/04/07 06:15:04;;;;;;;1.20;0.55;;;14.50;99.90;;;;;;5012416;28;20068;-72
2024/04/07 06:17:30;;;;;;;2.20;0.52;;;14.60;99.90;;;;;;5012662;28;20087;-72
2024/04/07 06:19:56;;;;;;;0.80;0.60;;;14.80;99.90;;;;;;4980059;28;20068;-72
2024/04/07 06:22:22;;;;;;;3.05;0.63;;;14.80;99.90;;;;;;5012559;28;20392;-73
2024/04/07 06:24:49;;;;;;;0.85;0.75;;;14.90;99.90;;;;;;5012503;28;20092;-72
2024/04/07 06:27:15;;;;;;;1.48;0.40;;;15.00;99.90;;;;;;4964025;28;20038;-72
2024/04/07 06:29:41;;;;;;;0.60;0.47;;;15.10;99.90;;;;;;4996545;28;20038;-72
2024/04/07 06:32:07;;;;;;;0.60;0.60;;;15.10;99.90;;;;;;4995952;28;20553;-73
2024/04/07 06:34:33;;;;;;;0.45;0.30;;;15.20;99.60;;;;;;5012365;28;20054;-72
2024/04/07 06:36:59;;;;;;;0.98;0.52;;;15.20;99.80;;;;;;5012380;28;20132;-72
2024/04/07 06:39:25;;;;;;;0.85;0.40;;;15.30;99.80;;;;;;4995941;28;20372;-73
2024/04/07 06:41:51;;;;;;;0.73;0.50;;;15.30;99.30;;;;;;5012332;28;20046;-73
2024/04/07 06:44:17;;;;;;;0.50;0.30;;;15.30;99.10;;;;;;4995554;28;20042;-72
2024/04/07 06:46:43;;;;;;;0.82;0.82;;;15.40;99.10;;;;;;5012156;28;20561;-73
2024/04/07 06:49:09;;;;;;;0.40;0.40;;;15.40;98.60;;;;;;5012111;28;20042;-73
2024/04/07 06:51:35;;;;;;;1.35;0.80;;;15.60;98.70;;;;;;5011537;28;20407;-72
2024/04/07 06:54:01;;;;;;;4.07;0.47;;;15.80;98.50;;;;;;4995759;28;20038;-73
2024/04/07 06:56:28;;;;;;;0.52;0.35;;;16.50;98.60;;;;;;5011927;28;20443;-73
2024/04/07 06:58:54;;;;;;;0.95;0.40;;;17.00;97.10;;;;;;4995772;28;20059;-73
2024/04/07 07:01:20;;;;;;;0.47;0.40;;;17.50;95.50;;;;;;5011865;28;20045;-73
2024/04/07 07:03:46;;;;;;;0.20;0.20;;;17.90;94.80;;;;;;5011644;28;20046;-73
2024/04/07 07:06:14;;;;;;;1.95;0.40;;;18.00;94.00;;;;;;5011647;28;20045;-73
2024/04/07 07:08:42;;;;;;;1.40;0.65;;;17.80;93.40;;;;;;5011856;28;20046;-73
2024/04/07 07:11:09;;;;;;;0.50;0.50;;;17.60;93.80;;;;;;5011757;28;20045;-73
2024/04/07 07:13:44;;;;;;;1.10;0.35;;;17.70;93.40;;;;;;5011590;28;20053;-73
2024/04/07 07:16:10;;;;;;;2.25;0.70;;;18.10;93.20;;;;;;5011779;28;20096;-73
2024/04/07 07:18:37;;;;;;;1.90;0.40;;;18.80;93.40;;;;;;4995479;28;20084;-73
2024/04/07 07:21:06;;;;;;;1.13;0.73;;;19.30;91.70;;;;;;5011591;28;20578;-73
2024/04/07 07:23:33;;;;;;;1.15;0.55;;;19.60;90.60;;;;;;5011410;28;20050;-73
2024/04/07 07:25:58;;;;;;;0.45;0.30;;;19.70;89.90;;;;;;4979551;28;20096;-73
2024/04/07 07:28:25;;;;;;;1.13;0.73;;;19.80;90.20;;;;;;5011485;28;20045;-74
2024/04/07 07:30:51;;;;;;;0.90;0.60;;;19.90;89.90;;;;;;5011668;28;20041;-73
2024/04/07 07:33:17;;;;;;;1.13;0.70;;;20.10;89.20;;;;;;5011358;28;20434;-74
2024/04/07 07:35:43;;;;;;;1.27;0.63;;;20.30;87.70;;;;;;4995255;28;20042;-74
2024/04/07 07:38:09;;;;;;;1.83;0.65;;;20.40;88.00;;;;;;5011517;28;20492;-74
2024/04/07 07:40:35;;;;;;;0.85;0.50;;;20.50;86.30;;;;;;4994668;28;20407;-74
2024/04/07 07:43:03;;;;;;;0.45;0.40;;;20.50;87.00;;;;;;4995083;28;20125;-74
2024/04/07 07:45:29;;;;;;;0.77;0.55;;;20.50;86.60;;;;;;4995229;28;20088;-74
2024/04/07 07:47:56;;;;;;;1.70;0.75;;;20.50;86.80;;;;;;5011474;28;20057;-74
2024/04/07 07:50:22;;;;;;;0.85;0.70;;;20.60;85.80;;;;;;5011086;28;20084;-74
2024/04/07 07:52:48;;;;;;;3.28;0.70;;;20.80;84.70;;;;;;5011333;28;20092;-74
2024/04/07 07:55:16;;;;;;;2.17;0.80;;;21.00;84.40;;;;;;5011263;28;20034;-74
2024/04/07 07:57:42;;;;;;;2.40;1.00;;;21.00;84.60;;;;;;4978502;28;20057;-74
2024/04/07 08:00:12;;;;;;;2.05;1.00;;;20.90;84.00;;;;;;4978668;28;20042;-74
2024/04/07 08:02:38;;;;;;;1.20;0.60;;;20.80;83.70;;;;;;4997540;28;20037;-74
2024/04/07 08:05:05;;;;;;;0.80;0.60;;;20.60;85.00;;;;;;5015173;28;20049;-74
2024/04/07 08:07:32;;;;;;;1.02;0.60;;;20.70;84.60;;;;;;5015009;28;20041;-73
2024/04/07 08:10:03;;;;;;;2.35;0.90;;;20.90;84.60;;;;;;4982677;28;20054;-73
2024/04/07 08:12:29;;;;;;;1.40;0.70;;;20.90;84.00;;;;;;5014936;28;20172;-73
2024/04/07 08:14:55;;;;;;;1.02;0.80;;;21.10;83.50;;;;;;5015065;28;20076;-73
2024/04/07 08:17:21;;;;;;;1.73;0.73;;;21.00;82.70;;;;;;4998601;28;20046;-74
2024/04/07 08:19:47;;;;;;;1.10;0.63;;;21.20;83.00;;;;;;5014983;28;20037;-73
2024/04/07 08:22:13;;;;;;;2.38;0.80;;;21.10;82.90;;;;;;5014848;28;20042;-74
2024/04/07 08:24:39;;;;;;;2.38;0.90;;;21.20;83.70;;;;;;4998293;28;20038;-74
2024/04/07 08:27:05;;;;;;;1.45;1.05;;;21.20;82.20;;;;;;5014718;28;20046;-73
2024/04/07 08:29:31;;;;;;;1.90;1.00;;;20.70;83.20;;;;;;4998540;28;20088;-73
2024/04/07 08:31:57;;;;;;;2.45;1.50;;;20.20;83.60;;;;;;5014579;28;20447;-73
2024/04/07 08:34:23;;;;;;;1.48;0.55;;;20.00;85.30;;;;;;4998088;28;20140;-73
2024/04/07 08:36:49;;;;;;;1.67;0.88;;;19.80;85.70;;;;;;4998298;28;20065;-73
2024/04/07 08:39:15;;;;;;;3.13;1.17;;;19.50;86.00;;;;;;5014427;28;20063;-73
2024/04/07 08:41:44;;;;;;;1.75;1.05;;;19.40;86.90;;;;;;5014048;28;20136;-73
2024/04/07 08:44:12;;;;;;;0.45;0.40;;;19.10;87.50;;;;;;4998134;28;20050;-73
2024/04/07 08:46:40;;;;;;;1.70;0.75;;;19.10;87.90;;;;;;5014287;28;20100;-73
2024/04/07 08:49:11;;;;;;;2.28;0.90;;;19.20;88.00;;;;;;5014322;28;20057;-73
2024/04/07 08:51:40;;;;;;;1.25;0.70;;;19.50;86.60;;;;;;4997786;28;20557;-73
2024/04/07 08:54:08;;;;;;;1.95;0.60;;;20.00;86.10;;;;;;5014595;28;20046;-74
2024/04/07 08:56:38;;;;;;;1.00;0.40;;;20.40;85.30;;;;;;4981713;28;20054;-73
2024/04/07 08:59:07;;;;;;;1.52;0.43;;;20.60;84.50;;;;;;4981658;28;20064;-73
2024/04/07 09:01:37;;;;;;;1.45;0.60;;;20.40;84.00;;;;;;5014064;28;20045;-73
2024/04/07 09:04:03;;;;;;;10.73;1.10;;;20.60;84.40;;;;;;4981682;28;20041;-73
2024/04/07 09:06:30;;;;;;;1.60;0.70;;;20.70;83.90;;;;;;4997574;28;20034;-73
2024/04/07 09:08:57;;;;;;;1.80;0.65;;;21.20;83.10;;;;;;5014006;28;20050;-73
2024/04/07 09:11:26;;;;;;;0.50;0.47;;;21.00;82.40;;;;;;5013823;28;20518;-73
2024/04/07 09:13:52;;;;;;;2.00;1.50;;;20.60;83.50;;;;;;5013308;28;20517;-73
2024/04/07 09:16:18;;;;;;;1.98;0.90;;;20.10;83.70;;;;;;4997478;28;20411;-73
2024/04/07 09:18:46;;;;;;;0.75;0.60;;;19.60;83.60;;;;;;5013604;28;20042;-73
2024/04/07 09:21:24;;;;;;;1.83;0.63;;;19.50;83.70;;;;;;5013605;28;20046;-74
2024/04/07 09:23:50;;;;;;;2.25;0.82;;;19.60;83.90;;;;;;4997172;28;20050;-73
2024/04/07 09:26:16;;;;;;;1.55;0.70;;;20.10;82.80;;;;;;5013695;28;20087;-73
2024/04/07 09:28:43;;;;;;;1.20;0.57;;;20.60;82.20;;;;;;4997323;28;20055;-74
2024/04/07 09:31:09;;;;;;;2.33;0.52;;;21.40;81.60;;;;;;5013893;28;20050;-73
2024/04/07 09:33:35;;;;;;;1.65;0.60;;;22.10;80.10;;;;;;5013234;28;20049;-74
2024/04/07 09:36:02;;;;;;;2.15;0.70;;;22.70;78.00;;;;;;4997170;28;20053;-74
2024/04/07 09:38:29;;;;;;;1.13;0.80;;;22.90;77.70;;;;;;5013647;28;20044;-73
2024/04/07 09:41:01;;;;;;;3.03;0.85;;;23.10;76.10;;;;;;4996946;28;20475;-74
2024/04/07 09:43:28;;;;;;;2.58;0.95;;;23.30;75.40;;;;;;5013044;28;20046;-74
2024/04/07 09:45:55;;;;;;;2.30;0.90;;;23.50;76.40;;;;;;5013097;28;20045;-74
2024/04/07 09:48:24;;;;;;;1.00;0.60;;;23.30;76.00;;;;;;4996867;28;20053;-73
2024/04/07 09:50:56;;;;;;;2.83;0.50;;;23.30;76.70;;;;;;4997029;28;20488;-74
2024/04/07 09:53:26;;;;;;;1.08;0.73;;;23.10;76.60;;;;;;5008856;28;20034;-73
2024/04/07 09:55:55;;;;;;;;;;;22.30;76.30;;;;;;4993878;28;20109;-73
2024/04/07 09:58:23;;;;;;;;;;;21.50;78.70;;;;;;4992721;28;20335;-73
2024/04/07 10:00:50;;;;;;;1.52;0.60;;;21.10;80.00;;;;;;4976676;28;20368;-74
2024/04/07 10:03:16;;;;;;;3.17;0.80;;;20.60;80.50;;;;;;4993463;28;20050;-73
2024/04/07 10:05:42;;;;;;;1.38;0.63;;;20.60;80.90;;;;;;4993229;28;20038;-73
2024/04/07 10:08:09;;;;;;;0.68;0.43;;;20.90;80.40;;;;;;4977206;28;20045;-73
2024/04/07 10:10:37;;;;;;;0.82;0.43;;;21.20;80.30;;;;;;4993288;28;20050;-73
2024/04/07 10:13:07;;;;;;;3.53;0.80;;;21.20;80.00;;;;;;4961029;28;20058;-73
2024/04/07 10:15:36;;;;;;;4.85;0.65;;;20.70;79.40;;;;;;4976914;28;20101;-73
2024/04/07 10:18:16;;;;;;;2.58;0.70;;;20.50;79.50;;;;;;4993128;28;20053;-73
2024/04/07 10:20:42;;;;;;;1.33;0.60;;;20.70;79.20;;;;;;4992860;28;20034;-73
2024/04/07 10:23:10;;;;;;;3.28;0.70;;;21.10;78.80;;;;;;4976864;28;20045;-73
2024/04/07 10:25:36;;;;;;;1.02;0.93;;;21.60;77.90;;;;;;4959705;28;20405;-73
2024/04/07 10:28:04;;;;;;;1.83;0.55;;;22.50;74.90;;;;;;4976581;28;20041;-74
2024/04/07 10:30:31;;;;;;;2.72;0.80;;;22.90;74.60;;;;;;4992891;28;20042;-74
2024/04/07 10:33:02;;;;;;;0.43;0.32;;;23.00;72.90;;;;;;4992595;28;20060;-74
2024/04/07 10:35:28;;;;;;;0.68;0.45;;;23.50;73.00;;;;;;4992863;28;20081;-74
2024/04/07 10:37:54;;;;;;;1.67;0.60;;;23.90;72.90;;;;;;4992392;28;20518;-72
2024/04/07 10:40:20;;;;;;;1.27;0.57;;;24.20;70.70;;;;;;5009211;28;20049;-74
2024/04/07 10:42:46;;;;;;;2.60;0.70;;;24.40;70.90;;;;;;4976366;28;20041;-74
2024/04/07 10:45:12;;;;;;;0.95;0.60;;;24.30;69.20;;;;;;4992445;28;20056;-74
2024/04/07 10:47:39;;;;;;;3.97;0.90;;;24.30;70.80;;;;;;4976414;28;20038;-73
2024/04/07 10:50:08;;;;;;;1.90;0.57;;;24.30;68.80;;;;;;4960179;28;20432;-74
2024/04/07 10:52:34;;;;;;;0.82;0.63;;;24.40;68.90;;;;;;4992503;28;20042;-74
2024/04/07 10:55:00;;;;;;;1.30;0.50;;;24.40;68.10;;;;;;4992409;28;20057;-74
2024/04/07 10:57:26;;;;;;;1.15;0.60;;;24.30;68.00;;;;;;5008862;28;20038;-72
2024/04/07 10:59:52;;;;;;;0.77;0.57;;;23.90;68.40;;;;;;4975864;28;20547;-74
2024/04/07 11:02:18;;;;;;;1.88;0.80;;;23.90;67.40;;;;;;4976292;28;20070;-74
2024/04/07 11:04:45;;;;;;;2.40;0.80;;;23.80;69.10;;;;;;4975839;28;20046;-72
2024/04/07 11:07:14;;;;;;;1.15;0.70;;;23.80;68.50;;;;;;4976237;28;20045;-74
2024/04/07 11:09:43;;;;;;;1.02;0.60;;;23.90;68.60;;;;;;4976294;28;20046;-72
2024/04/07 11:12:10;;;;;;;1.40;1.15;;;23.80;67.80;;;;;;4992148;28;20096;-74
2024/04/07 11:14:36;;;;;;;5.13;1.65;;;23.60;68.30;;;;;;4976025;28;20488;-74
2024/04/07 11:17:04;;;;;;;1.45;1.08;;;23.50;69.10;;;;;;4959747;28;20046;-72
2024/04/07 11:19:34;;;;;;;1.42;0.82;;;23.30;69.80;;;;;;4975842;28;20161;-74
2024/04/07 11:22:01;;;;;;;;;;;23.50;70.30;;;;;;4976222;28;20034;-72
2024/04/07 11:24:27;;;;;;;0.63;0.50;;;23.80;69.60;;;;;;4975951;28;19926;-72
2024/04/07 11:26:54;;;;;;;3.30;0.70;;;23.90;68.10;;;;;;4991788;28;20050;-72
2024/04/07 11:29:21;;;;;;;2.08;0.85;;;23.70;66.90;;;;;;4975874;28;20042;-72
2024/04/07 11:31:53;;;;;;;1.83;0.73;;;23.30;67.30;;;;;;4991775;28;20113;-72
2024/04/07 11:34:20;;;;;;;0.93;0.55;;;23.30;67.50;;;;;;4976391;28;20088;-72
2024/04/07 11:36:47;;;;;;;2.13;0.73;;;23.50;66.50;;;;;;4991701;28;20447;-73
2024/04/07 11:39:17;;;;;;;0.77;0.50;;;23.80;67.60;;;;;;4992005;28;20521;-72
2024/04/07 11:41:46;;;;;;;;;;;24.20;65.20;;;;;;4992213;28;20042;-73
2024/04/07 11:44:13;;;;;;;1.00;0.60;;;24.50;66.40;;;;;;4975739;28;19922;-72
2024/04/07 11:46:39;;;;;;;1.65;0.82;;;24.60;66.30;;;;;;4975604;28;20043;-73
2024/04/07 11:49:05;;;;;;;2.38;0.85;;;24.80;64.50;;;;;;4991451;28;20446;-72
2024/04/07 11:51:32;;;;;;;1.35;0.85;;;24.50;65.50;;;;;;4975631;28;20049;-73
2024/04/07 11:53:58;;;;;;;1.27;0.50;;;24.50;65.70;;;;;;4961539;28;20045;-73
2024/04/07 11:56:24;;;;;;;0.82;0.63;;;24.30;65.90;;;;;;4999825;28;20042;-72
2024/04/07 11:58:51;;;;;;;2.45;0.70;;;24.30;66.00;;;;;;5007699;28;20088;-72
2024/04/07 12:01:17;;;;;;;1.85;0.90;;;24.20;65.80;;;;;;5011129;28;20042;-72
2024/04/07 12:03:44;;;;;;;2.20;0.70;;;24.00;65.50;;;;;;5011101;28;20534;-73
2024/04/07 12:06:10;;;;;;;2.05;0.70;;;24.10;66.10;;;;;;4994619;28;20049;-72
2024/04/07 12:08:36;;;;;;;1.77;0.75;;;24.10;66.40;;;;;;5011072;28;20511;-72
2024/04/07 12:11:03;;;;;;;0.70;0.70;;;24.00;66.30;;;;;;5009822;28;20042;-72
2024/04/07 12:13:29;;;;;;;0.30;0.30;;;23.90;65.60;;;;;;5008871;28;20045;-72
2024/04/07 12:15:55;;;;;;;1.95;0.68;;;23.80;65.90;;;;;;4994309;28;20038;-72
2024/04/07 12:18:21;;;;;;;1.65;0.60;;;24.10;67.10;;;;;;4994470;28;20046;-72
2024/04/07 12:20:47;;;;;;;1.30;0.63;;;24.20;65.60;;;;;;4977527;28;20084;-72
2024/04/07 12:23:12;;;;;;;1.00;0.75;;;24.30;65.40;;;;;;4994188;28;20046;-72
2024/04/07 12:25:39;;;;;;;1.08;0.80;;;24.10;65.90;;;;;;5010955;28;20034;-72
2024/04/07 12:28:05;;;;;;;2.10;0.60;;;24.00;65.80;;;;;;4994088;28;20420;-72
2024/04/07 12:30:31;;;;;;;2.20;1.05;;;23.80;67.20;;;;;;5010622;28;20042;-72
2024/04/07 12:32:57;;;;;;;0.80;0.52;;;23.90;67.30;;;;;;4994433;28;20068;-72
2024/04/07 12:35:23;;;;;;;1.88;0.65;;;23.50;67.90;;;;;;4994445;28;20426;-72
2024/04/07 12:37:49;;;;;;;1.88;0.60;;;23.00;69.60;;;;;;4994180;28;20046;-72
2024/04/07 12:40:15;;;;;;;2.70;0.80;;;22.70;68.90;;;;;;4993988;28;20034;-72
2024/04/07 12:42:44;;;;;;;1.85;0.77;;;22.60;69.50;;;;;;5008798;28;20041;-72
2024/04/07 12:45:11;;;;;;;1.17;0.85;;;22.40;69.60;;;;;;4999568;28;20061;-72
2024/04/07 12:47:37;;;;;;;1.67;0.50;;;22.10;70.70;;;;;;4985961;28;20039;-72
2024/04/07 12:50:04;;;;;;;0.70;0.70;;;22.70;70.30;;;;;;4994195;28;20058;-72